Time;durP1;ratioP1;P1;durP2;ratioP2;P2;SDS_P1;SDS_P2;PMS_P1;PMS_P2;Temp;Humidity;BMP_temperature;BMP_pressure;BME280_temperature;BME280_humidity;BME280_pressure;Samples;Min_cycle;Max_cycle;Signal;HPM_P1;HPM_P2
2022/06/16 00:00:47;;;;;;;5.18;2.63;;;;;;;;;;5030616;28;20031;-53
2022/06/16 00:03:13;;;;;;;5.47;3.42;;;;;;;;;;5029125;28;20052;-54
2022/06/16 00:05:42;;;;;;;3.28;2.60;;;;;;;;;;5028714;28;20064;-53
2022/06/16 00:08:08;;;;;;;6.28;3.20;;;;;;;;;;5028244;28;20021;-53
2022/06/16 00:10:35;;;;;;;5.95;3.13;;;;;;;;;;5027927;28;20030;-54
2022/06/16 00:13:01;;;;;;;5.80;3.45;;;;;;;;;;5029912;28;20025;-54
2022/06/16 00:15:27;;;;;;;6.38;3.05;;;;;;;;;;5028665;28;20105;-54
2022/06/16 00:17:54;;;;;;;6.90;3.30;;;;;;;;;;5028875;28;20512;-52
2022/06/16 00:20:20;;;;;;;6.82;3.10;;;;;;;;;;5027269;28;20378;-53
2022/06/16 00:22:46;;;;;;;8.85;2.80;;;;;;;;;;5030728;28;20039;-54
2022/06/16 00:25:12;;;;;;;6.72;3.50;;;;;;;;;;5029080;28;20453;-52
2022/06/16 00:27:38;;;;;;;6.57;2.97;;;;;;;;;;5027854;28;20033;-56
2022/06/16 00:30:05;;;;;;;6.32;3.10;;;;;;;;;;5029438;28;20079;-55
2022/06/16 00:32:31;;;;;;;7.18;3.85;;;;;;;;;;5028409;28;20025;-53
2022/06/16 00:34:57;;;;;;;5.90;3.15;;;;;;;;;;5038508;28;20040;-54
2022/06/16 00:37:23;;;;;;;6.53;3.05;;;;;;;;;;5028411;28;20037;-55
2022/06/16 00:39:49;;;;;;;4.25;2.60;;;;;;;;;;5026799;28;20091;-56
2022/06/16 00:42:19;;;;;;;8.07;2.50;;;;;;;;;;5028834;28;20374;-54
2022/06/16 00:44:50;;;;;;;6.07;3.03;;;;;;;;;;5030151;28;20022;-54
2022/06/16 00:47:17;;;;;;;5.38;2.70;;;;;;;;;;5033642;28;20112;-53
2022/06/16 00:49:45;;;;;;;5.13;2.65;;;;;;;;;;5030186;28;20036;-57
2022/06/16 00:52:16;;;;;;;5.55;2.83;;;;;;;;;;5033717;28;20504;-55
2022/06/16 00:54:46;;;;;;;4.28;3.10;;;;;;;;;;5032074;28;20052;-55
2022/06/16 00:57:14;;;;;;;5.40;2.83;;;;;;;;;;5031280;28;20487;-54
2022/06/16 00:59:41;;;;;;;5.18;2.67;;;;;;;;;;5030258;28;20025;-55
2022/06/16 01:02:08;;;;;;;4.38;2.50;;;;;;;;;;5030088;28;20044;-53
2022/06/16 01:04:53;;;;;;;8.55;3.00;;;;;;;;;;5030970;28;20033;-55
2022/06/16 01:07:21;;;;;;;4.60;2.58;;;;;;;;;;5021349;28;20474;-53
2022/06/16 01:09:48;;;;;;;7.95;2.70;;;;;;;;;;5029636;28;20532;-50
2022/06/16 01:15:39;;;;;;;6.65;3.17;;;;;;;;;;5022760;28;20044;-54
2022/06/16 01:18:12;;;;;;;3.83;2.00;;;;;;;;;;5032181;28;20435;-54
2022/06/16 01:20:51;;;;;;;5.88;2.60;;;;;;;;;;5030239;28;20112;-56
2022/06/16 01:23:35;;;;;;;4.90;2.80;;;;;;;;;;5018812;28;20029;-55
2022/06/16 01:26:20;;;;;;;5.63;2.60;;;;;;;;;;5029111;28;20105;-55
2022/06/16 01:29:06;;;;;;;3.45;2.17;;;;;;;;;;5030878;28;20487;-56
2022/06/16 01:31:34;;;;;;;4.53;2.58;;;;;;;;;;5021061;28;20025;-55
2022/06/16 01:34:05;;;;;;;8.13;2.28;;;;;;;;;;5029738;28;20056;-55
2022/06/16 01:36:42;;;;;;;3.67;2.20;;;;;;;;;;5031445;28;20030;-53
2022/06/16 01:39:14;;;;;;;3.88;2.42;;;;;;;;;;5030222;28;20072;-54
2022/06/16 01:41:42;;;;;;;5.75;2.63;;;;;;;;;;5031139;28;20033;-54
2022/06/16 01:44:10;;;;;;;6.82;2.58;;;;;;;;;;5022076;28;20027;-56
2022/06/16 01:46:39;;;;;;;6.18;2.60;;;;;;;;;;5031447;28;20116;-57
2022/06/16 01:49:07;;;;;;;5.45;2.17;;;;;;;;;;5029772;28;20030;-52
2022/06/16 01:51:36;;;;;;;6.85;2.40;;;;;;;;;;5034144;28;20485;-56
2022/06/16 01:54:05;;;;;;;5.82;2.42;;;;;;;;;;5028835;28;20599;-54
2022/06/16 01:56:42;;;;;;;5.72;2.40;;;;;;;;;;5030950;28;20400;-54
2022/06/16 01:59:12;;;;;;;8.05;2.58;;;;;;;;;;5027760;28;20152;-55
2022/06/16 02:01:41;;;;;;;4.07;2.65;;;;;;;;;;5030845;28;20030;-53
2022/06/16 02:04:12;;;;;;;4.93;1.83;;;;;;;;;;5029462;28;20026;-56
2022/06/16 02:06:41;;;;;;;5.63;2.80;;;;;;;;;;5029847;28;20671;-54
2022/06/16 02:09:10;;;;;;;5.15;2.30;;;;;;;;;;5029139;28;20054;-54
2022/06/16 02:11:36;;;;;;;4.43;2.30;;;;;;;;;;5030039;28;20154;-54
2022/06/16 02:14:23;;;;;;;3.53;2.67;;;;;;;;;;5030805;28;20108;-54
2022/06/16 02:16:49;;;;;;;2.80;2.17;;;;;;;;;;5024845;28;20029;-55
2022/06/16 02:19:18;;;;;;;6.55;2.72;;;;;;;;;;5031396;28;20029;-51
2022/06/16 02:21:46;;;;;;;7.38;2.80;;;;;;;;;;5028807;28;20041;-53
2022/06/16 02:24:13;;;;;;;4.72;2.60;;;;;;;;;;5029905;28;20104;-52
2022/06/16 02:26:40;;;;;;;5.03;2.60;;;;;;;;;;5030875;28;20448;-56
2022/06/16 02:29:29;;;;;;;5.03;2.40;;;;;;;;;;5027484;28;20060;-54
2022/06/16 02:32:13;;;;;;;5.35;2.60;;;;;;;;;;5027123;28;20029;-55
2022/06/16 02:34:55;;;;;;;7.35;2.60;;;;;;;;;;5031130;28;20037;-53
2022/06/16 02:37:26;;;;;;;4.72;2.90;;;;;;;;;;5027232;28;20021;-52
2022/06/16 02:39:57;;;;;;;6.60;3.08;;;;;;;;;;5029675;28;20477;-52
2022/06/16 02:42:32;;;;;;;5.82;3.30;;;;;;;;;;5031707;28;20539;-54
2022/06/16 02:45:16;;;;;;;6.38;2.72;;;;;;;;;;5030222;28;20053;-52
2022/06/16 02:48:01;;;;;;;4.80;2.80;;;;;;;;;;5029325;28;20044;-54
2022/06/16 02:50:46;;;;;;;6.15;2.63;;;;;;;;;;5029093;28;20108;-57
2022/06/16 02:56:39;;;;;;;4.80;3.03;;;;;;;;;;5031620;28;20075;-54
2022/06/16 02:59:09;;;;;;;4.00;2.42;;;;;;;;;;5016426;28;20046;-55
2022/06/16 03:01:35;;;;;;;4.38;2.55;;;;;;;;;;5029844;28;20389;-55
2022/06/16 03:04:11;;;;;;;6.25;2.72;;;;;;;;;;5030059;28;20385;-53
2022/06/16 03:06:38;;;;;;;6.18;2.67;;;;;;;;;;5030445;28;20528;-52
2022/06/16 03:09:04;;;;;;;5.93;3.15;;;;;;;;;;5028632;28;20073;-52
2022/06/16 03:11:31;;;;;;;5.25;2.60;;;;;;;;;;5029045;28;20389;-52
2022/06/16 03:13:57;;;;;;;4.30;2.60;;;;;;;;;;5029317;28;20026;-55
2022/06/16 03:16:23;;;;;;;7.63;3.38;;;;;;;;;;5031133;28;20452;-54
2022/06/16 03:18:49;;;;;;;5.18;3.05;;;;;;;;;;5026290;28;22147;-55
2022/06/16 03:21:16;;;;;;;3.47;2.85;;;;;;;;;;5023704;28;20132;-55
2022/06/16 03:23:42;;;;;;;5.38;3.03;;;;;;;;;;5029062;28;20104;-57
2022/06/16 03:26:08;;;;;;;5.57;2.90;;;;;;;;;;5028888;28;20568;-53
2022/06/16 03:28:34;;;;;;;3.50;2.22;;;;;;;;;;5030131;28;20441;-53
2022/06/16 03:31:00;;;;;;;6.63;2.80;;;;;;;;;;5028417;28;20557;-54
2022/06/16 03:33:26;;;;;;;5.18;2.78;;;;;;;;;;5026983;28;20124;-55
2022/06/16 03:35:52;;;;;;;10.98;3.45;;;;;;;;;;5028870;28;20041;-55
2022/06/16 03:38:32;;;;;;;10.88;3.25;;;;;;;;;;5027907;28;20136;-52
2022/06/16 03:40:58;;;;;;;3.88;2.60;;;;;;;;;;5029376;28;20473;-55
2022/06/16 03:43:24;;;;;;;3.55;2.50;;;;;;;;;;5029223;28;20037;-54
2022/06/16 03:45:50;;;;;;;5.93;2.83;;;;;;;;;;5030040;28;20057;-53
2022/06/16 03:48:16;;;;;;;6.00;2.92;;;;;;;;;;5029972;28;20029;-55
2022/06/16 03:50:42;;;;;;;6.95;3.00;;;;;;;;;;5028067;28;20068;-53
2022/06/16 03:53:08;;;;;;;7.30;3.28;;;;;;;;;;5030891;28;20033;-53
2022/06/16 03:55:35;;;;;;;7.82;3.38;;;;;;;;;;5027858;28;20508;-55
2022/06/16 03:58:01;;;;;;;8.45;3.53;;;;;;;;;;5027914;28;20026;-53
2022/06/16 04:00:27;;;;;;;5.72;3.25;;;;;;;;;;5028701;28;20374;-52
2022/06/16 04:03:59;;;;;;;4.53;2.88;;;;;;;;;;5026526;28;20026;-55
2022/06/16 04:05:39;;;;;;;7.57;3.13;;;;;;;;;;5029717;28;20481;-55
2022/06/16 04:08:05;;;;;;;5.60;3.08;;;;;;;;;;5026663;28;20100;-54
2022/06/16 04:10:31;;;;;;;6.28;3.25;;;;;;;;;;5026043;28;20079;-55
2022/06/16 04:12:57;;;;;;;5.90;2.80;;;;;;;;;;5027958;28;20074;-53
2022/06/16 04:15:23;;;;;;;7.25;3.28;;;;;;;;;;5024747;28;20389;-56
2022/06/16 04:17:49;;;;;;;6.47;2.92;;;;;;;;;;5026529;28;20030;-55
2022/06/16 04:20:15;;;;;;;6.40;3.60;;;;;;;;;;5029878;28;20030;-55
2022/06/16 04:22:42;;;;;;;7.85;3.28;;;;;;;;;;5033498;28;20025;-55
2022/06/16 04:25:12;;;;;;;5.53;3.17;;;;;;;;;;5031627;28;20026;-54
2022/06/16 04:27:38;;;;;;;7.43;3.40;;;;;;;;;;5030357;28;20563;-54
2022/06/16 04:30:04;;;;;;;6.70;3.00;;;;;;;;;;5030466;28;20378;-53
2022/06/16 04:32:30;;;;;;;6.63;3.25;;;;;;;;;;5035163;28;20741;-53
2022/06/16 04:34:56;;;;;;;6.05;3.30;;;;;;;;;;5032823;28;20072;-54
2022/06/16 04:37:22;;;;;;;5.15;3.05;;;;;;;;;;5031783;28;20452;-54
2022/06/16 04:39:50;;;;;;;8.07;3.70;;;;;;;;;;5032509;28;20041;-54
2022/06/16 04:42:16;;;;;;;8.68;4.03;;;;;;;;;;5032179;28;20140;-54
2022/06/16 04:44:42;;;;;;;4.90;3.30;;;;;;;;;;5030713;28;20052;-54
2022/06/16 04:47:08;;;;;;;4.30;2.95;;;;;;;;;;5030874;28;20039;-54
2022/06/16 04:49:35;;;;;;;5.53;3.00;;;;;;;;;;5029763;28;20033;-55
2022/06/16 04:52:01;;;;;;;5.13;2.75;;;;;;;;;;5031007;28;20017;-55
2022/06/16 04:54:27;;;;;;;4.95;3.20;;;;;;;;;;5030647;28;20037;-55
2022/06/16 04:56:53;;;;;;;4.93;3.08;;;;;;;;;;5030546;28;20370;-55
2022/06/16 04:59:19;;;;;;;6.45;3.03;;;;;;;;;;5029125;28;20041;-55
2022/06/16 05:01:45;;;;;;;3.70;2.72;;;;;;;;;;5030838;28;20091;-52
2022/06/16 05:04:11;;;;;;;6.97;3.42;;;;;;;;;;5035143;28;20022;-55
2022/06/16 05:06:37;;;;;;;5.30;3.28;;;;;;;;;;5030092;28;20033;-55
2022/06/16 05:09:03;;;;;;;7.25;3.33;;;;;;;;;;5031669;28;20034;-53
2022/06/16 05:11:29;;;;;;;4.40;3.05;;;;;;;;;;5033046;28;20037;-55
2022/06/16 05:13:55;;;;;;;6.93;2.83;;;;;;;;;;5028074;28;20432;-57
2022/06/16 05:16:21;;;;;;;9.98;3.60;;;;;;;;;;5033084;28;20036;-52
2022/06/16 05:18:48;;;;;;;7.38;3.28;;;;;;;;;;5030640;28;20029;-53
2022/06/16 05:21:15;;;;;;;6.30;2.88;;;;;;;;;;5030027;28;20468;-53
2022/06/16 05:23:41;;;;;;;9.38;3.05;;;;;;;;;;5032634;28;20033;-58
2022/06/16 05:26:08;;;;;;;4.97;3.05;;;;;;;;;;5032278;28;20385;-53
2022/06/16 05:28:36;;;;;;;6.18;3.00;;;;;;;;;;5031705;28;20033;-57
2022/06/16 05:31:02;;;;;;;5.57;2.70;;;;;;;;;;5031032;28;20139;-58
2022/06/16 05:33:28;;;;;;;7.07;2.85;;;;;;;;;;5031927;28;20026;-55
2022/06/16 05:36:02;;;;;;;6.10;2.90;;;;;;;;;;5032280;28;20037;-55
2022/06/16 05:38:28;;;;;;;5.50;3.38;;;;;;;;;;5031026;28;20121;-55
2022/06/16 05:40:58;;;;;;;6.82;2.45;;;;;;;;;;5031259;28;20037;-56
2022/06/16 05:43:24;;;;;;;7.10;2.80;;;;;;;;;;5044567;28;20091;-56
2022/06/16 05:45:52;;;;;;;10.70;2.65;;;;;;;;;;5031269;28;20358;-54
2022/06/16 05:48:18;;;;;;;6.57;3.20;;;;;;;;;;5030846;28;20025;-57
2022/06/16 05:50:44;;;;;;;6.40;2.40;;;;;;;;;;5032084;28;20037;-56
2022/06/16 05:53:10;;;;;;;5.55;2.08;;;;;;;;;;5028136;28;20553;-52
2022/06/16 05:55:36;;;;;;;5.40;2.95;;;;;;;;;;5030523;28;20088;-55
2022/06/16 05:58:02;;;;;;;6.30;2.72;;;;;;;;;;5039500;28;20476;-53
2022/06/16 06:00:28;;;;;;;6.88;2.63;;;;;;;;;;5036023;28;20465;-55
2022/06/16 06:02:57;;;;;;;6.10;2.95;;;;;;;;;;5029544;28;20091;-50
2022/06/16 06:05:23;;;;;;;5.40;2.80;;;;;;;;;;5031823;28;20025;-54
2022/06/16 06:18:48;;;;;;;9.45;2.85;;;;;;;;;;5032266;28;20094;-55
2022/06/16 06:21:14;;;;;;;6.28;2.40;;;;;;;;;;5029243;28;20030;-55
2022/06/16 06:23:40;;;;;;;6.82;2.47;;;;;;;;;;5042830;28;20105;-54
2022/06/16 06:26:06;;;;;;;4.10;2.55;;;;;;;;;;5030431;28;20025;-54
2022/06/16 06:28:32;;;;;;;8.50;2.42;;;;;;;;;;5031937;28;20052;-57
2022/06/16 06:30:57;;;;;;;13.43;2.90;;;;;;;;;;5031252;28;20025;-55
2022/06/16 06:33:23;;;;;;;4.57;2.53;;;;;;;;;;5032062;28;20492;-56
2022/06/16 06:35:49;;;;;;;3.50;2.42;;;;;;;;;;5032072;28;20389;-54
2022/06/16 06:38:15;;;;;;;5.22;2.33;;;;;;;;;;5031657;28;20400;-55
2022/06/16 06:40:42;;;;;;;8.70;2.13;;;;;;;;;;5031438;28;20034;-55
2022/06/16 06:43:08;;;;;;;8.85;2.75;;;;;;;;;;5033645;28;20103;-51
2022/06/16 06:45:34;;;;;;;4.45;2.03;;;;;;;;;;5031616;28;20112;-54
2022/06/16 06:48:01;;;;;;;4.40;2.03;;;;;;;;;;5031400;28;20029;-57
2022/06/16 06:50:29;;;;;;;4.68;1.88;;;;;;;;;;5031273;28;20037;-54
2022/06/16 06:52:55;;;;;;;7.22;2.22;;;;;;;;;;5031482;28;20029;-55
2022/06/16 06:55:21;;;;;;;6.65;2.10;;;;;;;;;;5031504;28;20038;-53
2022/06/16 06:57:48;;;;;;;5.80;2.15;;;;;;;;;;5031617;28;20111;-54
2022/06/16 07:00:15;;;;;;;5.55;1.92;;;;;;;;;;5038901;28;20477;-56
2022/06/16 07:02:41;;;;;;;7.43;2.13;;;;;;;;;;5031175;28;20030;-54
2022/06/16 07:05:08;;;;;;;6.53;2.28;;;;;;;;;;5031555;28;20036;-55
2022/06/16 07:07:34;;;;;;;4.90;1.92;;;;;;;;;;5031494;28;20051;-55
2022/06/16 07:10:01;;;;;;;6.10;2.00;;;;;;;;;;5031032;28;20029;-52
2022/06/16 07:12:27;;;;;;;6.80;2.00;;;;;;;;;;5031396;28;20091;-54
2022/06/16 07:14:53;;;;;;;3.35;1.67;;;;;;;;;;5031009;28;20037;-54
2022/06/16 07:17:20;;;;;;;4.68;1.83;;;;;;;;;;5037697;28;20025;-53
2022/06/16 07:19:46;;;;;;;5.18;1.35;;;;;;;;;;5029372;28;20064;-54
2022/06/16 07:22:12;;;;;;;3.22;1.90;;;;;;;;;;5031326;28;20462;-54
2022/06/16 07:24:38;;;;;;;5.05;2.45;;;;;;;;;;5028448;28;20101;-52
2022/06/16 07:27:04;;;;;;;6.13;2.42;;;;;;;;;;5029847;28;20458;-56
2022/06/16 07:29:31;;;;;;;5.50;1.92;;;;;;;;;;5028717;28;20083;-54
2022/06/16 07:31:58;;;;;;;5.68;1.60;;;;;;;;;;5027103;28;20034;-54
2022/06/16 07:34:24;;;;;;;7.25;1.83;;;;;;;;;;5030148;28;20091;-55
2022/06/16 07:36:50;;;;;;;7.72;2.10;;;;;;;;;;5031002;28;20025;-54
2022/06/16 07:39:16;;;;;;;4.18;1.70;;;;;;;;;;5027705;28;20071;-54
2022/06/16 07:41:42;;;;;;;7.03;2.13;;;;;;;;;;5030114;28;20021;-53
2022/06/16 07:44:10;;;;;;;4.40;1.63;;;;;;;;;;5028437;28;20512;-55
2022/06/16 07:46:37;;;;;;;3.72;1.42;;;;;;;;;;5029367;28;20022;-55
2022/06/16 07:49:04;;;;;;;11.98;2.10;;;;;;;;;;5026059;28;20033;-57
2022/06/16 07:51:30;;;;;;;3.65;1.60;;;;;;;;;;5029258;28;20049;-54
2022/06/16 07:53:56;;;;;;;3.55;1.60;;;;;;;;;;5027141;28;20033;-57
2022/06/16 07:56:22;;;;;;;4.53;1.83;;;;;;;;;;5034939;28;20099;-55
2022/06/16 07:58:48;;;;;;;7.43;1.60;;;;;;;;;;5031008;28;20092;-55
2022/06/16 08:01:15;;;;;;;4.38;1.52;;;;;;;;;;5031544;28;20033;-56
2022/06/16 08:03:41;;;;;;;4.38;1.75;;;;;;;;;;5033415;28;20022;-53
2022/06/16 08:06:08;;;;;;;6.25;1.60;;;;;;;;;;5034581;28;20041;-55
2022/06/16 08:08:34;;;;;;;4.72;1.65;;;;;;;;;;5045496;28;20113;-56
2022/06/16 08:11:00;;;;;;;4.25;1.73;;;;;;;;;;5034931;28;20163;-55
2022/06/16 08:13:27;;;;;;;4.70;1.75;;;;;;;;;;5031352;28;20090;-56
2022/06/16 08:15:54;;;;;;;5.43;1.80;;;;;;;;;;5034492;28;20075;-56
2022/06/16 08:18:21;;;;;;;4.07;1.60;;;;;;;;;;5030703;28;20025;-55
2022/06/16 08:20:47;;;;;;;4.05;1.75;;;;;;;;;;5033310;28;20026;-56
2022/06/16 08:23:13;;;;;;;3.47;1.30;;;;;;;;;;5033614;28;20528;-54
2022/06/16 08:25:40;;;;;;;3.00;1.45;;;;;;;;;;5033707;28;20025;-56
2022/06/16 08:28:08;;;;;;;5.22;1.55;;;;;;;;;;5032318;28;20094;-55
2022/06/16 08:30:34;;;;;;;5.30;1.70;;;;;;;;;;5029828;28;20030;-55
2022/06/16 08:33:02;;;;;;;2.78;1.50;;;;;;;;;;5032960;28;20036;-57
2022/06/16 08:35:28;;;;;;;3.83;1.40;;;;;;;;;;5034097;28;20033;-56
2022/06/16 08:37:54;;;;;;;5.72;1.30;;;;;;;;;;5034299;28;20025;-56
2022/06/16 08:40:20;;;;;;;4.53;1.70;;;;;;;;;;5032751;28;20559;-54
2022/06/16 08:42:46;;;;;;;1.92;1.23;;;;;;;;;;5033012;28;20030;-54
2022/06/16 08:45:22;;;;;;;3.53;1.30;;;;;;;;;;5032392;28;20513;-57
2022/06/16 08:48:11;;;;;;;2.92;1.42;;;;;;;;;;5017263;28;20473;-56
2022/06/16 08:50:45;;;;;;;3.38;1.35;;;;;;;;;;5029937;28;20036;-56
2022/06/16 08:53:17;;;;;;;4.75;1.13;;;;;;;;;;5032240;28;20581;-55
2022/06/16 08:55:43;;;;;;;5.05;1.15;;;;;;;;;;5029656;28;20056;-56
2022/06/16 08:58:31;;;;;;;5.60;1.92;;;;;;;;;;5031844;28;20064;-54
2022/06/16 09:01:06;;;;;;;2.33;1.10;;;;;;;;;;5021300;28;20041;-55
2022/06/16 09:03:39;;;;;;;4.15;1.60;;;;;;;;;;5032340;28;20013;-57
2022/06/16 09:06:20;;;;;;;4.38;1.17;;;;;;;;;;5030666;28;20029;-56
2022/06/16 09:09:05;;;;;;;8.15;1.33;;;;;;;;;;5028634;28;20033;-56
2022/06/16 09:11:36;;;;;;;3.10;1.30;;;;;;;;;;5028579;28;20075;-55
2022/06/16 09:14:08;;;;;;;3.38;1.40;;;;;;;;;;5024180;28;20029;-56
2022/06/16 09:16:54;;;;;;;6.68;1.58;;;;;;;;;;5032182;28;20120;-56
2022/06/16 09:19:32;;;;;;;3.22;1.23;;;;;;;;;;5030165;28;20037;-56
2022/06/16 09:22:17;;;;;;;4.65;1.38;;;;;;;;;;5030491;28;20040;-57
2022/06/16 09:24:52;;;;;;;2.47;1.45;;;;;;;;;;5032716;28;20022;-56
2022/06/16 09:27:25;;;;;;;3.90;1.70;;;;;;;;;;5031482;28;20112;-54
2022/06/16 09:29:51;;;;;;;;;;;;;;;;;;5031289;28;20026;-56
2022/06/16 09:32:22;;;;;;;2.80;1.63;;;;;;;;;;5030142;28;19948;-56
2022/06/16 09:35:04;;;;;;;4.43;1.60;;;;;;;;;;5021164;28;20551;-56
2022/06/16 09:37:35;;;;;;;3.75;1.48;;;;;;;;;;5031120;28;20116;-57
2022/06/16 09:40:04;;;;;;;7.13;1.63;;;;;;;;;;5031460;28;20436;-56
2022/06/16 09:42:42;;;;;;;5.07;1.65;;;;;;;;;;5030873;28;20148;-56
2022/06/16 09:45:21;;;;;;;2.95;1.55;;;;;;;;;;5031789;28;20045;-55
2022/06/16 09:47:47;;;;;;;8.00;1.73;;;;;;;;;;5030098;28;20451;-56
2022/06/16 09:50:18;;;;;;;5.53;1.75;;;;;;;;;;5029763;28;20032;-55
2022/06/16 09:52:48;;;;;;;2.03;1.30;;;;;;;;;;5031674;28;20056;-56
2022/06/16 09:55:30;;;;;;;4.22;1.35;;;;;;;;;;5031759;28;20128;-56
2022/06/16 09:58:01;;;;;;;4.25;1.52;;;;;;;;;;5027751;28;20040;-56
2022/06/16 10:00:33;;;;;;;4.82;1.60;;;;;;;;;;5039544;28;20558;-56
2022/06/16 10:03:02;;;;;;;5.22;1.20;;;;;;;;;;5032744;28;20022;-55
2022/06/16 10:05:34;;;;;;;3.05;1.13;;;;;;;;;;5035013;28;20028;-53
2022/06/16 10:08:11;;;;;;;5.88;1.42;;;;;;;;;;5032670;28;20512;-57
2022/06/16 10:10:44;;;;;;;4.68;1.75;;;;;;;;;;5031960;28;20508;-56
2022/06/16 10:13:26;;;;;;;4.03;1.50;;;;;;;;;;5032289;28;20029;-57
2022/06/16 10:15:55;;;;;;;3.50;1.20;;;;;;;;;;5032081;28;20029;-56
2022/06/16 10:18:22;;;;;;;4.32;1.50;;;;;;;;;;5030833;28;20025;-57
2022/06/16 10:20:48;;;;;;;5.15;1.50;;;;;;;;;;5030595;28;20044;-56
2022/06/16 10:23:25;;;;;;;4.88;1.33;;;;;;;;;;5032939;28;20051;-55
2022/06/16 10:26:02;;;;;;;2.58;1.23;;;;;;;;;;5032122;28;20029;-57
2022/06/16 10:28:34;;;;;;;4.05;1.27;;;;;;;;;;5026624;28;20021;-57
2022/06/16 10:31:01;;;;;;;4.85;1.38;;;;;;;;;;5031689;28;20025;-57
2022/06/16 10:33:29;;;;;;;5.30;1.52;;;;;;;;;;5029200;28;20024;-55
2022/06/16 10:36:01;;;;;;;4.88;1.30;;;;;;;;;;5025197;28;20021;-56
2022/06/16 10:38:32;;;;;;;6.85;1.25;;;;;;;;;;5031193;28;20029;-57
2022/06/16 10:40:59;;;;;;;7.40;1.55;;;;;;;;;;5029482;28;20025;-58
2022/06/16 10:43:25;;;;;;;3.72;1.10;;;;;;;;;;5027304;28;20492;-57
2022/06/16 10:46:09;;;;;;;5.63;1.23;;;;;;;;;;5027416;28;20029;-56
2022/06/16 10:48:36;;;;;;;2.45;1.08;;;;;;;;;;5022105;28;20538;-59
2022/06/16 10:51:07;;;;;;;3.90;1.45;;;;;;;;;;5027194;28;20056;-56
2022/06/16 10:54:00;;;;;;;3.72;1.65;;;;;;;;;;5033716;28;20420;-56
2022/06/16 10:56:27;;;;;;;5.78;2.00;;;;;;;;;;5051664;28;20412;-57
2022/06/16 10:58:53;;;;;;;2.53;1.20;;;;;;;;;;5050362;28;20033;-57
2022/06/16 11:01:23;;;;;;;4.40;1.30;;;;;;;;;;5050005;28;20028;-57
2022/06/16 11:03:54;;;;;;;6.85;1.52;;;;;;;;;;5047281;28;20107;-56
2022/06/16 11:06:22;;;;;;;5.63;1.20;;;;;;;;;;5048543;28;20087;-56
2022/06/16 11:08:49;;;;;;;2.70;1.30;;;;;;;;;;5049963;28;20021;-57
2022/06/16 11:11:21;;;;;;;2.88;1.08;;;;;;;;;;5049021;28;20025;-56
2022/06/16 11:13:53;;;;;;;8.68;1.30;;;;;;;;;;5058055;28;20029;-55
2022/06/16 11:16:25;;;;;;;4.75;1.45;;;;;;;;;;5041484;28;20685;-56
2022/06/16 11:18:53;;;;;;;2.75;1.05;;;;;;;;;;5050966;28;20571;-56
2022/06/16 11:21:24;;;;;;;3.15;1.23;;;;;;;;;;5050034;28;20413;-56
2022/06/16 11:23:52;;;;;;;3.20;1.35;;;;;;;;;;5050105;28;20023;-56
2022/06/16 11:26:28;;;;;;;2.72;1.20;;;;;;;;;;5048696;28;20021;-55
2022/06/16 11:28:57;;;;;;;6.35;1.50;;;;;;;;;;5049777;28;20068;-54
2022/06/16 11:31:34;;;;;;;4.55;1.40;;;;;;;;;;5050884;28;20028;-54
2022/06/16 11:34:18;;;;;;;3.03;1.30;;;;;;;;;;5045610;28;20488;-56
2022/06/16 11:36:44;;;;;;;;;;;;;;;;;;5051297;28;20091;-55
2022/06/16 11:39:23;;;;;;;2.58;1.30;;;;;;;;;;5050657;28;19995;-56
2022/06/16 11:41:51;;;;;;;3.25;1.25;;;;;;;;;;5050210;28;20025;-57
2022/06/16 11:44:22;;;;;;;4.57;1.45;;;;;;;;;;5047920;28;20021;-56
2022/06/16 11:46:52;;;;;;;7.32;1.30;;;;;;;;;;5049588;28;20021;-58
2022/06/16 11:49:18;;;;;;;3.35;1.08;;;;;;;;;;5051151;28;20043;-53
2022/06/16 11:51:47;;;;;;;4.32;1.80;;;;;;;;;;5049444;28;20025;-58
2022/06/16 11:54:28;;;;;;;2.47;1.10;;;;;;;;;;5050402;28;20392;-56
2022/06/16 11:56:58;;;;;;;3.60;1.13;;;;;;;;;;5039014;28;20108;-57
2022/06/16 11:59:35;;;;;;;3.63;1.30;;;;;;;;;;5048977;28;20037;-54
2022/06/16 12:02:20;;;;;;;4.85;1.30;;;;;;;;;;5052597;28;20028;-57
2022/06/16 12:04:53;;;;;;;4.25;1.10;;;;;;;;;;5055834;28;20099;-56
2022/06/16 12:07:37;;;;;;;3.72;0.98;;;;;;;;;;5057308;28;20028;-58
2022/06/16 12:10:03;;;;;;;3.50;1.10;;;;;;;;;;5050042;28;20041;-57
2022/06/16 12:12:35;;;;;;;3.65;1.30;;;;;;;;;;5050309;28;20152;-57
2022/06/16 12:15:01;;;;;;;4.22;1.20;;;;;;;;;;5050178;28;20037;-57
2022/06/16 12:17:38;;;;;;;1.90;1.00;;;;;;;;;;5056157;28;20048;-55
2022/06/16 12:20:07;;;;;;;7.13;1.30;;;;;;;;;;5059482;28;20116;-56
2022/06/16 12:22:55;;;;;;;5.78;1.13;;;;;;;;;;5047694;28;20025;-57
2022/06/16 12:25:25;;;;;;;3.95;1.30;;;;;;;;;;5046789;28;20531;-58
2022/06/16 12:27:58;;;;;;;3.05;1.13;;;;;;;;;;5047546;28;20451;-58
2022/06/16 12:30:27;;;;;;;4.57;1.55;;;;;;;;;;5049841;28;20539;-57
2022/06/16 12:33:07;;;;;;;15.70;1.30;;;;;;;;;;5049795;28;20086;-58
2022/06/16 12:35:33;;;;;;;3.58;1.20;;;;;;;;;;5049083;28;20128;-58
2022/06/16 12:38:03;;;;;;;4.80;1.40;;;;;;;;;;5050223;28;20028;-57
2022/06/16 12:40:29;;;;;;;3.10;1.15;;;;;;;;;;5054361;28;20021;-57
2022/06/16 12:42:58;;;;;;;3.08;1.40;;;;;;;;;;5053279;28;20035;-58
2022/06/16 12:45:33;;;;;;;3.88;1.45;;;;;;;;;;5057830;28;20055;-57
2022/06/16 12:48:03;;;;;;;5.35;1.20;;;;;;;;;;5066305;28;20330;-57
2022/06/16 12:50:32;;;;;;;2.97;1.02;;;;;;;;;;5052910;28;20516;-56
2022/06/16 12:53:08;;;;;;;2.85;1.10;;;;;;;;;;5047574;28;20382;-57
2022/06/16 12:55:36;;;;;;;4.80;1.20;;;;;;;;;;5053704;28;20053;-57
2022/06/16 12:58:06;;;;;;;4.00;1.40;;;;;;;;;;5052502;28;20421;-58
2022/06/16 13:00:36;;;;;;;1.55;0.90;;;;;;;;;;5057439;28;20033;-57
2022/06/16 13:03:07;;;;;;;3.00;1.10;;;;;;;;;;5071494;28;20048;-57
2022/06/16 13:05:33;;;;;;;3.03;1.00;;;;;;;;;;5073882;28;20031;-57
2022/06/16 13:08:02;;;;;;;3.33;1.00;;;;;;;;;;5086113;28;20024;-58
2022/06/16 13:10:28;;;;;;;4.95;1.00;;;;;;;;;;5074901;28;20040;-57
2022/06/16 13:12:55;;;;;;;3.50;1.10;;;;;;;;;;5081373;28;20056;-58
2022/06/16 13:15:31;;;;;;;3.92;0.90;;;;;;;;;;5075582;28;20052;-57
2022/06/16 13:18:17;;;;;;;2.22;0.95;;;;;;;;;;5072764;28;20087;-57
2022/06/16 13:20:51;;;;;;;2.40;0.77;;;;;;;;;;5072585;28;20036;-57
2022/06/16 13:23:34;;;;;;;3.63;0.73;;;;;;;;;;5073519;28;20427;-55
2022/06/16 13:26:18;;;;;;;3.20;0.68;;;;;;;;;;5073145;28;20361;-54
2022/06/16 13:28:51;;;;;;;4.32;1.10;;;;;;;;;;5073132;28;20037;-55
2022/06/16 13:31:22;;;;;;;3.08;1.15;;;;;;;;;;5072765;28;20016;-54
2022/06/16 13:33:54;;;;;;;3.88;0.90;;;;;;;;;;5073414;28;20126;-54
2022/06/16 13:36:23;;;;;;;3.08;0.93;;;;;;;;;;5072767;28;20024;-55
2022/06/16 13:38:50;;;;;;;3.95;0.80;;;;;;;;;;5072968;28;20517;-55
2022/06/16 13:41:33;;;;;;;4.82;0.90;;;;;;;;;;5072495;28;20052;-56
2022/06/16 13:44:12;;;;;;;5.32;0.77;;;;;;;;;;5062083;28;20515;-56
2022/06/16 13:46:48;;;;;;;3.42;0.70;;;;;;;;;;5074211;28;20020;-56
2022/06/16 13:49:26;;;;;;;2.00;0.90;;;;;;;;;;5072451;28;20029;-56
2022/06/16 13:51:53;;;;;;;4.10;0.80;;;;;;;;;;5070922;28;20028;-56
2022/06/16 13:54:28;;;;;;;3.92;0.47;;;;;;;;;;5072408;28;20044;-55
2022/06/16 13:56:54;;;;;;;1.52;0.70;;;;;;;;;;5069230;28;20120;-56
2022/06/16 13:59:28;;;;;;;1.80;0.52;;;;;;;;;;5067956;28;20041;-55
2022/06/16 14:02:03;;;;;;;4.82;0.75;;;;;;;;;;5070911;28;20043;-55
2022/06/16 14:04:29;;;;;;;1.17;0.57;;;;;;;;;;5070301;28;20032;-55
2022/06/16 14:07:09;;;;;;;2.33;0.60;;;;;;;;;;5075536;28;20047;-55
2022/06/16 14:09:38;;;;;;;3.28;0.70;;;;;;;;;;5080066;28;20054;-57
2022/06/16 14:12:04;;;;;;;4.22;0.82;;;;;;;;;;5070518;28;20035;-52
2022/06/16 14:14:51;;;;;;;3.78;0.70;;;;;;;;;;5083827;28;20100;-53
2022/06/16 14:17:30;;;;;;;3.20;0.80;;;;;;;;;;5072428;28;20028;-58
2022/06/16 14:19:57;;;;;;;1.88;0.70;;;;;;;;;;5071616;28;20430;-55
2022/06/16 14:22:23;;;;;;;1.98;0.65;;;;;;;;;;5071941;28;20520;-55
2022/06/16 14:24:59;;;;;;;3.00;0.65;;;;;;;;;;5074106;28;20488;-54
2022/06/16 14:27:36;;;;;;;4.93;0.55;;;;;;;;;;5076000;28;20033;-54
2022/06/16 14:30:04;;;;;;;4.60;0.85;;;;;;;;;;5070872;28;20028;-55
2022/06/16 14:32:35;;;;;;;1.58;0.70;;;;;;;;;;5070534;28;20029;-54
2022/06/16 14:35:04;;;;;;;2.72;0.77;;;;;;;;;;5071425;28;20106;-56
2022/06/16 14:37:33;;;;;;;1.65;0.82;;;;;;;;;;5072590;28;20028;-56
2022/06/16 14:40:05;;;;;;;2.17;0.70;;;;;;;;;;5075604;28;20476;-56
2022/06/16 14:42:33;;;;;;;1.67;0.60;;;;;;;;;;5071650;28;20032;-56
2022/06/16 14:45:01;;;;;;;1.67;0.70;;;;;;;;;;5071159;28;20040;-58
2022/06/16 14:47:41;;;;;;;0.90;0.57;;;;;;;;;;5075556;28;20034;-59
2022/06/16 14:50:10;;;;;;;3.05;0.80;;;;;;;;;;5077664;28;20043;-59
2022/06/16 14:52:46;;;;;;;1.38;0.57;;;;;;;;;;5070879;28;20028;-58
2022/06/16 14:55:14;;;;;;;2.83;0.50;;;;;;;;;;5069984;28;20052;-57
2022/06/16 14:57:42;;;;;;;0.73;0.50;;;;;;;;;;5075673;28;20024;-58
2022/06/16 15:00:16;;;;;;;3.08;0.70;;;;;;;;;;5079176;28;20047;-57
2022/06/16 15:02:42;;;;;;;3.60;0.90;;;;;;;;;;5067432;28;20028;-58
2022/06/16 15:05:10;;;;;;;4.35;0.70;;;;;;;;;;5068414;28;20036;-57
2022/06/16 15:07:39;;;;;;;5.00;0.88;;;;;;;;;;5068823;28;20029;-57
2022/06/16 15:10:05;;;;;;;4.60;0.82;;;;;;;;;;5077427;28;20094;-56
2022/06/16 15:12:35;;;;;;;1.80;0.98;;;;;;;;;;5068249;28;20028;-56
2022/06/16 15:15:01;;;;;;;1.95;0.70;;;;;;;;;;5069468;28;20040;-57
2022/06/16 15:20:14;;;;;;;2.38;0.63;;;;;;;;;;5067110;28;20138;-57